Time;durP1;ratioP1;P1;durP2;ratioP2;P2;SDS_P1;SDS_P2;PMS_P1;PMS_P2;Temp;Humidity;BMP_temperature;BMP_pressure;BME280_temperature;BME280_humidity;BME280_pressure;Samples;Min_cycle;Max_cycle;Signal;HPM_P1;HPM_P2
2023/10/16 00:00:47;;;;;;;1.45;1.10;;;;;;;22.05;30.50;101241.69;4505259;28;20042;-63
2023/10/16 00:03:02;;;;;;;1.38;1.02;;;;;;;22.05;30.67;101246.59;4504795;28;20653;-63
2023/10/16 00:05:14;;;;;;;1.73;1.15;;;;;;;22.02;30.83;101238.69;4506264;28;20038;-63
2023/10/16 00:07:27;;;;;;;1.27;1.02;;;;;;;22.02;30.62;101236.66;4504287;28;20109;-63
2023/10/16 00:09:39;;;;;;;1.45;1.25;;;;;;;22.02;30.54;101242.41;4505376;28;20042;-63
2023/10/16 00:11:49;;;;;;;1.42;1.20;;;;;;;21.98;30.69;101235.72;4507835;28;20090;-63
2023/10/16 00:14:00;;;;;;;1.58;1.00;;;;;;;21.98;30.90;101229.97;4508337;28;20125;-63
2023/10/16 00:16:15;;;;;;;0.95;0.80;;;;;;;21.96;30.86;101226.59;4508331;28;20137;-63
2023/10/16 00:18:33;;;;;;;1.63;1.20;;;;;;;22.02;30.90;101242.41;4508948;28;20667;-63
2023/10/16 00:20:47;;;;;;;1.60;1.00;;;;;;;22.00;30.88;101239.06;4508783;28;20725;-63
2023/10/16 00:22:57;;;;;;;1.83;1.08;;;;;;;22.00;30.94;101238.22;4508830;28;20032;-63
2023/10/16 00:25:07;;;;;;;1.20;1.10;;;;;;;22.00;30.47;101239.06;4509520;28;20044;-63
2023/10/16 00:27:18;;;;;;;1.98;1.20;;;;;;;21.99;30.88;101231.63;4508684;28;20365;-63
2023/10/16 00:29:38;;;;;;;2.42;1.23;;;;;;;21.99;30.51;101237.38;4491156;28;20145;-63
2023/10/16 00:31:51;;;;;;;1.90;1.10;;;;;;;22.00;30.66;101241.94;4508813;28;20038;-63
2023/10/16 00:34:02;;;;;;;1.55;1.10;;;;;;;21.99;30.84;101237.38;4508552;28;20195;-63
2023/10/16 00:36:13;;;;;;;1.38;1.05;;;;;;;21.96;30.41;101232.34;4491657;28;20069;-63
2023/10/16 00:38:25;;;;;;;1.35;1.00;;;;;;;21.94;30.53;101231.91;4507957;28;20034;-63
2023/10/16 00:40:36;;;;;;;1.83;1.13;;;;;;;21.98;30.98;101229.09;4490958;28;20049;-63
2023/10/16 00:42:48;;;;;;;1.38;1.10;;;;;;;21.97;30.44;101231.16;4508466;28;20029;-63
2023/10/16 00:45:00;;;;;;;1.67;1.17;;;;;;;21.91;30.37;101220.28;4508371;28;20030;-63
2023/10/16 00:47:11;;;;;;;1.20;0.98;;;;;;;21.96;30.59;101229.47;4506889;28;20585;-63
2023/10/16 00:49:23;;;;;;;1.45;1.10;;;;;;;21.98;30.61;101235.72;4508250;28;21495;-63
2023/10/16 00:51:36;;;;;;;1.70;1.00;;;;;;;21.96;30.87;101229.47;4490286;28;20035;-63
2023/10/16 00:53:46;;;;;;;1.50;1.00;;;;;;;21.97;30.55;101236.91;4508442;28;20006;-63
2023/10/16 00:55:57;;;;;;;1.33;1.00;;;;;;;21.97;30.63;101239.78;4506796;28;20439;-63
2023/10/16 00:58:08;;;;;;;1.38;1.00;;;;;;;21.89;30.67;101217.75;4483093;28;20133;-63
2023/10/16 01:00:19;;;;;;;1.58;1.08;;;;;;;21.90;30.74;101227.19;4508102;28;20134;-63
2023/10/16 01:02:32;;;;;;;1.30;0.90;;;;;;;21.89;30.56;101226.38;4508719;28;20046;-63
2023/10/16 01:04:43;;;;;;;1.55;1.17;;;;;;;21.95;30.91;101242.19;4506146;28;20663;-63
2023/10/16 01:06:55;;;;;;;1.48;1.10;;;;;;;21.90;30.58;101222.31;4507960;28;20121;-63
2023/10/16 01:09:08;;;;;;;1.42;0.90;;;;;;;21.94;30.43;101234.78;4508380;28;20060;-63
2023/10/16 01:11:20;;;;;;;1.17;1.08;;;;;;;21.95;30.66;101229.84;4506412;28;20137;-63
2023/10/16 01:13:31;;;;;;;1.27;0.95;;;;;;;21.93;30.46;101229.34;4508461;28;20492;-63
2023/10/16 01:15:50;;;;;;;1.80;1.10;;;;;;;21.89;30.70;101219.78;4506391;28;20085;-63
2023/10/16 01:18:01;;;;;;;1.75;0.93;;;;;;;21.93;30.66;101221.56;4489429;28;20035;-63
2023/10/16 01:20:12;;;;;;;1.27;0.93;;;;;;;21.91;30.95;101208.78;4507664;28;20045;-63
2023/10/16 01:22:22;;;;;;;1.80;1.20;;;;;;;21.92;30.77;101219.91;4506105;28;20032;-63
2023/10/16 01:24:32;;;;;;;1.10;1.00;;;;;;;21.90;30.43;101210.81;4506239;28;20498;-63
2023/10/16 01:26:43;;;;;;;1.38;1.00;;;;;;;21.87;31.01;101200.03;4490607;28;20506;-63
2023/10/16 01:28:54;;;;;;;1.38;1.10;;;;;;;21.92;30.60;101208.41;4489323;28;20579;-63
2023/10/16 01:31:05;;;;;;;1.75;1.20;;;;;;;21.87;30.67;101197.16;4508171;28;20773;-63
2023/10/16 01:33:19;;;;;;;1.35;1.10;;;;;;;21.89;30.48;101208.28;4508034;28;20044;-63
2023/10/16 01:35:29;;;;;;;2.00;1.00;;;;;;;21.89;31.02;101203.41;4507589;28;20058;-63
2023/10/16 01:37:41;;;;;;;1.60;1.00;;;;;;;21.88;30.78;101207.44;4489305;28;20050;-63
2023/10/16 01:40:11;;;;;;;1.08;0.98;;;;;;;21.88;30.86;101201.69;4505518;28;20129;-63
2023/10/16 01:42:23;;;;;;;1.50;1.05;;;;;;;21.83;30.94;101201.97;4489348;28;20061;-63
2023/10/16 01:44:34;;;;;;;1.75;1.20;;;;;;;21.89;30.88;101203.41;4507512;28;20030;-63
2023/10/16 01:46:47;;;;;;;1.67;1.00;;;;;;;21.87;30.71;101197.16;4491038;28;20487;-63
2023/10/16 01:49:00;;;;;;;1.52;0.93;;;;;;;21.86;31.07;101189.75;4489873;28;20926;-63
2023/10/16 01:51:13;;;;;;;1.55;1.20;;;;;;;21.88;30.61;101195.94;4507366;28;20956;-63
2023/10/16 01:53:32;;;;;;;2.17;1.23;;;;;;;21.86;30.47;101189.75;4489904;28;20072;-63
2023/10/16 01:55:51;;;;;;;1.75;1.15;;;;;;;21.86;30.74;101192.63;4507104;28;20046;-63
2023/10/16 01:58:03;;;;;;;1.15;0.90;;;;;;;21.85;30.65;101193.00;4506489;28;20073;-63
2023/10/16 02:00:17;;;;;;;1.25;1.00;;;;;;;21.85;30.91;101193.81;4489614;28;20192;-63
2023/10/16 02:02:28;;;;;;;2.20;1.20;;;;;;;21.86;30.57;101192.63;4488474;28;20039;-63
2023/10/16 02:04:39;;;;;;;5.60;3.05;;;;;;;21.84;30.70;101195.00;4507277;28;20030;-63
2023/10/16 02:06:49;;;;;;;2.17;1.40;;;;;;;21.85;30.98;101196.69;4506949;28;20036;-64
2023/10/16 02:09:00;;;;;;;1.50;1.23;;;;;;;21.81;30.67;101184.25;4487611;28;20132;-63
2023/10/16 02:11:11;;;;;;;1.98;1.20;;;;;;;21.81;30.73;101189.16;4506971;28;20091;-63
2023/10/16 02:13:22;;;;;;;1.65;1.17;;;;;;;21.81;30.62;101184.25;4489048;28;20031;-63
2023/10/16 02:15:36;;;;;;;1.50;1.10;;;;;;;21.85;30.65;101196.69;4488385;28;20030;-63
2023/10/16 02:17:49;;;;;;;1.55;1.17;;;;;;;21.83;30.95;101190.47;4488825;28;20112;-63
2023/10/16 02:19:59;;;;;;;1.60;1.17;;;;;;;21.82;30.70;101197.41;4507014;28;20041;-63
2023/10/16 02:22:11;;;;;;;1.20;1.10;;;;;;;21.80;30.60;101190.34;4488824;28;20411;-63
2023/10/16 02:24:21;;;;;;;1.52;1.17;;;;;;;21.84;30.70;101195.00;4490180;28;20612;-63
2023/10/16 02:26:42;;;;;;;1.80;1.10;;;;;;;21.82;30.67;101197.41;4489107;28;20027;-63
2023/10/16 02:28:54;;;;;;;1.73;1.20;;;;;;;21.82;30.89;101197.41;4506988;28;20084;-63
2023/10/16 02:31:10;;;;;;;1.48;1.20;;;;;;;21.82;30.27;101196.56;4506169;28;20040;-63
2023/10/16 02:33:26;;;;;;;1.48;1.10;;;;;;;21.75;30.62;101188.56;4505493;28;20045;-63
2023/10/16 02:35:37;;;;;;;1.42;1.17;;;;;;;21.80;30.36;101194.03;4506698;28;20038;-63
2023/10/16 02:37:53;;;;;;;1.25;1.00;;;;;;;21.76;30.18;101189.38;4506770;28;20038;-63
2023/10/16 02:40:09;;;;;;;1.40;1.07;;;;;;;21.81;30.35;101194.91;4504764;28;20831;-63
2023/10/16 02:42:20;;;;;;;1.55;1.20;;;;;;;21.81;30.19;101203.50;4489059;28;20062;-63
2023/10/16 02:44:30;;;;;;;1.55;1.02;;;;;;;21.79;30.59;101201.00;4504019;28;20070;-63
2023/10/16 02:46:41;;;;;;;1.40;1.20;;;;;;;21.78;30.72;101195.63;4488464;28;20491;-63
2023/10/16 02:48:55;;;;;;;1.67;1.15;;;;;;;21.81;30.34;101203.50;4506673;28;20514;-63
2023/10/16 02:51:06;;;;;;;3.33;1.52;;;;;;;21.79;30.26;101192.38;4505354;28;20116;-63
2023/10/16 02:53:23;;;;;;;1.63;1.13;;;;;;;21.80;29.94;101211.28;4506702;28;20081;-63
2023/10/16 02:55:33;;;;;;;;;;;;;;;21.80;30.09;101199.78;4488684;28;20034;-63
2023/10/16 02:57:44;;;;;;;1.92;1.20;;;;;;;21.72;30.37;101189.22;4505916;28;19925;-63
2023/10/16 02:59:56;;;;;;;1.63;1.33;;;;;;;21.79;30.21;101197.28;4506221;28;20109;-63
2023/10/16 03:02:17;;;;;;;2.08;1.30;;;;;;;21.77;30.43;101212.00;4506654;28;20042;-63
2023/10/16 03:04:28;;;;;;;1.67;1.30;;;;;;;21.76;30.27;101198.84;4505073;28;20041;-63
2023/10/16 03:06:40;;;;;;;1.67;1.13;;;;;;;21.77;30.30;101199.69;4488045;28;20519;-63
2023/10/16 03:08:54;;;;;;;1.85;1.23;;;;;;;21.78;30.32;101213.72;4488051;28;20034;-63
2023/10/16 03:11:13;;;;;;;1.52;1.15;;;;;;;21.76;30.15;101207.47;4505899;28;20042;-63
2023/10/16 03:13:25;;;;;;;1.63;1.10;;;;;;;21.77;30.59;101212.00;4505742;28;20580;-63
2023/10/16 03:18:10;;;;;;;1.52;1.20;;;;;;;21.76;30.62;101206.63;4485336;28;20045;-63
2023/10/16 03:20:35;;;;;;;1.92;1.27;;;;;;;21.71;30.68;101204.81;4505501;28;20811;-63
2023/10/16 03:22:47;;;;;;;1.60;1.40;;;;;;;21.76;30.51;101204.59;4506619;28;20034;-63
2023/10/16 03:24:59;;;;;;;1.50;1.20;;;;;;;21.70;30.55;101190.81;4505981;28;20084;-63
2023/10/16 03:27:10;;;;;;;1.50;1.10;;;;;;;21.74;30.27;101209.84;4505235;28;20040;-63
2023/10/16 03:29:23;;;;;;;2.17;1.38;;;;;;;21.72;30.51;101199.91;4506391;28;20018;-63
2023/10/16 03:31:36;;;;;;;1.67;1.20;;;;;;;21.73;30.31;101199.53;4505611;28;20045;-63
2023/10/16 03:33:50;;;;;;;1.75;1.30;;;;;;;21.75;30.16;101207.81;4487914;28;20061;-63
2023/10/16 03:36:03;;;;;;;1.92;1.13;;;;;;;21.74;30.32;101206.13;4505186;28;20030;-63
2023/10/16 03:38:27;;;;;;;1.77;1.23;;;;;;;21.72;29.94;101203.59;4505249;28;20029;-63
2023/10/16 03:40:38;;;;;;;2.03;1.20;;;;;;;21.72;30.48;101200.72;4505014;28;20119;-63
2023/10/16 03:42:49;;;;;;;2.28;1.48;;;;;;;21.73;30.32;101205.28;4505692;28;20588;-63
2023/10/16 03:45:02;;;;;;;1.63;1.27;;;;;;;21.71;30.23;101199.06;4506170;28;20044;-63
2023/10/16 03:47:14;;;;;;;1.80;1.20;;;;;;;21.72;30.07;101206.47;4505570;28;20049;-63
2023/10/16 03:49:24;;;;;;;2.42;1.48;;;;;;;21.67;30.35;101195.25;4505903;28;20874;-63
2023/10/16 03:51:35;;;;;;;1.80;1.27;;;;;;;21.71;29.86;101196.19;4505102;28;20042;-63
2023/10/16 03:53:45;;;;;;;2.00;1.17;;;;;;;21.67;29.51;101186.63;4506128;28;20030;-63
2023/10/16 03:55:56;;;;;;;2.10;1.20;;;;;;;21.70;29.76;101200.28;4503696;28;20045;-63
2023/10/16 03:58:06;;;;;;;2.08;1.38;;;;;;;21.70;30.16;101197.41;4505601;28;20041;-63
2023/10/16 04:00:18;;;;;;;1.80;1.10;;;;;;;21.70;30.24;101199.44;4505430;28;20057;-63
2023/10/16 04:02:31;;;;;;;2.80;1.17;;;;;;;21.70;30.24;101203.16;4505559;28;20794;-63
2023/10/16 04:04:42;;;;;;;2.15;1.50;;;;;;;21.69;30.04;101198.56;4488411;28;20055;-63
2023/10/16 04:06:56;;;;;;;2.60;1.60;;;;;;;21.67;30.20;101194.41;4505588;28;20548;-63
2023/10/16 04:09:09;;;;;;;2.45;1.50;;;;;;;21.69;30.25;101201.44;4505334;28;20030;-63
2023/10/16 04:11:21;;;;;;;1.70;1.30;;;;;;;21.70;30.52;101199.44;4505186;28;20034;-63
2023/10/16 04:13:31;;;;;;;2.60;1.60;;;;;;;21.68;30.41;101199.78;4503873;28;20042;-63
2023/10/16 04:18:04;;;;;;;1.58;1.20;;;;;;;21.67;30.04;101195.25;4505738;28;20117;-63
2023/10/16 04:20:43;;;;;;;2.58;1.60;;;;;;;21.66;30.25;101189.88;4505332;28;20042;-63
2023/10/16 04:22:58;;;;;;;1.33;1.20;;;;;;;21.66;30.07;101198.47;4504044;28;20041;-63
2023/10/16 04:25:18;;;;;;;1.60;1.33;;;;;;;21.65;29.92;101189.03;4504794;28;20033;-63
2023/10/16 04:27:33;;;;;;;2.08;1.20;;;;;;;21.64;29.79;101186.50;4504187;28;20033;-63
2023/10/16 04:32:56;;;;;;;2.60;1.50;;;;;;;21.66;30.34;101192.75;4503737;28;20132;-63
2023/10/16 04:34:52;;;;;;;1.85;1.38;;;;;;;21.65;30.09;101191.03;4498144;28;20041;-63
2023/10/16 04:44:22;;;;;;;2.72;1.60;;;;;;;21.63;29.85;101188.53;4505544;28;20022;-63
2023/10/16 04:46:55;;;;;;;1.67;1.30;;;;;;;21.64;29.87;101187.34;4505725;28;20739;-63
2023/10/16 04:49:04;;;;;;;2.22;1.20;;;;;;;21.62;29.71;101181.13;4505095;28;20603;-63
2023/10/16 04:51:22;;;;;;;1.58;1.20;;;;;;;21.64;29.80;101177.88;4503254;28;20109;-63
2023/10/16 04:53:47;;;;;;;1.58;1.10;;;;;;;21.50;29.39;101154.44;4487996;28;20026;-63
2023/10/16 04:56:16;;;;;;;1.75;1.25;;;;;;;21.62;29.14;101171.66;4504399;28;20192;-63
2023/10/16 04:58:33;;;;;;;1.70;1.30;;;;;;;21.62;29.42;101175.38;4506519;28;21083;-63
2023/10/16 05:03:23;;;;;;;2.00;1.30;;;;;;;21.61;29.42;101179.44;4508459;28;20134;-63
2023/10/16 05:05:56;;;;;;;1.65;1.20;;;;;;;21.61;29.78;101181.47;4508240;28;20034;-63
2023/10/16 05:13:22;;;;;;;1.90;1.30;;;;;;;21.58;30.14;101179.34;4490217;28;20034;-63
2023/10/16 05:15:51;;;;;;;1.25;1.10;;;;;;;21.59;29.95;101169.50;4507218;28;20108;-63
2023/10/16 05:18:11;;;;;;;1.92;1.20;;;;;;;21.57;29.83;101175.63;4490469;28;20042;-63
2023/10/16 06:14:59;;;;;;;1.45;1.00;;;;;;;21.51;30.91;101190.56;4507157;28;20085;-63
2023/10/16 06:17:18;;;;;;;1.15;1.02;;;;;;;21.50;30.61;101192.59;4506791;28;20113;-63
2023/10/16 06:19:28;;;;;;;1.25;1.00;;;;;;;21.46;30.97;101188.78;4506989;28;20044;-63
2023/10/16 06:21:38;;;;;;;2.05;1.10;;;;;;;21.49;30.80;101199.56;4506775;28;20886;-63
2023/10/16 06:23:49;;;;;;;1.30;1.05;;;;;;;21.47;31.10;101199.06;4506790;28;20108;-63
2023/10/16 06:26:03;;;;;;;1.25;0.90;;;;;;;21.49;31.25;101199.56;4506468;28;20022;-62
2023/10/16 06:28:15;;;;;;;1.98;1.02;;;;;;;21.49;31.01;101199.56;4506941;28;20104;-62
2023/10/16 06:30:25;;;;;;;2.08;1.00;;;;;;;21.48;31.40;101203.63;4507301;28;20533;-63
2023/10/16 06:32:37;;;;;;;1.98;1.08;;;;;;;21.47;31.38;101189.63;4490694;28;20043;-63
2023/10/16 06:34:57;;;;;;;2.92;1.17;;;;;;;21.49;31.44;101198.69;4505878;28;20071;-63
2023/10/16 06:37:09;;;;;;;1.58;1.08;;;;;;;21.50;31.12;101203.28;4506748;28;20329;-63
2023/10/16 06:39:22;;;;;;;2.67;1.10;;;;;;;21.50;31.28;101195.47;4504012;28;20893;-63
2023/10/16 06:41:33;;;;;;;2.20;1.30;;;;;;;21.50;31.33;101198.34;4506822;28;20598;-63
2023/10/16 06:43:47;;;;;;;1.30;1.10;;;;;;;21.51;31.28;101196.31;4487284;28;20104;-62
2023/10/16 06:45:58;;;;;;;2.10;1.30;;;;;;;21.49;31.44;101196.69;4504240;28;20116;-62
2023/10/16 06:48:14;;;;;;;1.52;1.20;;;;;;;21.51;31.65;101197.16;4506550;28;20040;-62
2023/10/16 06:52:35;;;;;;;1.70;1.30;;;;;;;21.48;31.33;101200.75;4488788;28;20038;-62
2023/10/16 06:54:45;;;;;;;1.58;1.15;;;;;;;21.50;31.34;101200.41;4487376;28;20435;-62
2023/10/16 06:56:59;;;;;;;1.65;0.98;;;;;;;21.48;31.39;101197.88;4505072;28;20041;-62
2023/10/16 06:59:16;;;;;;;1.52;1.20;;;;;;;21.49;31.36;101193.81;4505044;28;20565;-62
2023/10/16 07:01:26;;;;;;;1.42;1.17;;;;;;;21.50;31.82;101201.22;4507186;28;20030;-62
2023/10/16 07:03:39;;;;;;;1.98;1.20;;;;;;;21.48;31.49;101194.16;4506989;28;20625;-62
2023/10/16 07:05:49;;;;;;;1.30;1.00;;;;;;;21.50;31.80;101195.47;4506711;28;20034;-62
2023/10/16 07:07:59;;;;;;;2.05;1.35;;;;;;;21.48;32.02;101195.03;4505924;28;20451;-62
2023/10/16 07:10:13;;;;;;;1.67;1.30;;;;;;;21.47;31.84;101187.56;4506607;28;20026;-62
2023/10/16 07:12:23;;;;;;;2.42;1.30;;;;;;;21.49;32.22;101196.69;4506670;28;20042;-62
2023/10/16 07:14:34;;;;;;;1.40;1.00;;;;;;;21.43;32.36;101191.53;4506407;28;20030;-62
2023/10/16 07:16:44;;;;;;;1.73;0.90;;;;;;;21.49;32.14;101198.69;4488904;28;20590;-63
2023/10/16 07:18:57;;;;;;;1.27;0.90;;;;;;;21.47;32.15;101199.06;4505740;28;20038;-65
2023/10/16 07:21:08;;;;;;;1.20;1.00;;;;;;;21.49;32.59;101198.69;4505177;28;20563;-63
2023/10/16 07:23:20;;;;;;;1.65;1.13;;;;;;;21.48;32.43;101203.63;4505626;28;20448;-63
2023/10/16 07:25:54;;;;;;;1.45;1.00;;;;;;;21.40;32.40;101190.22;4503858;28;20049;-63
2023/10/16 07:28:09;;;;;;;1.50;1.13;;;;;;;21.47;32.75;101193.31;4506472;28;20042;-63
2023/10/16 07:30:22;;;;;;;2.05;1.17;;;;;;;21.47;32.45;101206.88;4506160;28;21247;-63
2023/10/16 07:32:32;;;;;;;2.03;1.02;;;;;;;21.46;32.92;101217.50;4505336;28;20860;-63
2023/10/16 07:34:43;;;;;;;1.70;1.13;;;;;;;21.46;32.58;101205.16;4506251;28;20068;-63
2023/10/16 07:36:55;;;;;;;1.10;0.90;;;;;;;21.45;32.88;101204.34;4506706;28;20069;-63
2023/10/16 07:39:05;;;;;;;2.20;0.93;;;;;;;21.46;33.01;101206.03;4504805;28;20041;-63
2023/10/16 07:41:18;;;;;;;1.55;0.90;;;;;;;21.44;32.81;101199.78;4504625;28;20049;-63
2023/10/16 07:43:34;;;;;;;2.15;1.10;;;;;;;21.43;33.22;101206.75;4506304;28;20124;-63
2023/10/16 07:45:45;;;;;;;2.30;1.20;;;;;;;21.46;33.23;101220.38;4505179;28;20049;-63
2023/10/16 07:48:00;;;;;;;2.15;1.20;;;;;;;21.46;33.04;101214.63;4504918;28;20270;-63
2023/10/16 07:50:11;;;;;;;2.13;1.08;;;;;;;21.45;32.83;101206.38;4505637;28;20072;-63
2023/10/16 07:52:21;;;;;;;1.40;1.05;;;;;;;21.46;33.25;101211.75;4506176;28;20120;-63
2023/10/16 07:54:36;;;;;;;1.80;0.90;;;;;;;21.46;33.11;101208.03;4506011;28;20040;-63
2023/10/16 07:56:50;;;;;;;2.45;1.10;;;;;;;21.42;33.42;101213.66;4503327;28;20038;-63
2023/10/16 07:59:08;;;;;;;1.35;0.90;;;;;;;21.44;33.60;101219.88;4505888;28;20679;-63
2023/10/16 08:06:39;;;;;;;1.85;1.00;;;;;;;21.46;33.56;101233.88;4451807;28;20028;-63
2023/10/16 08:08:50;;;;;;;2.20;1.30;;;;;;;21.45;33.46;101224.47;4487916;28;20097;-63
2023/10/16 08:11:06;;;;;;;1.70;1.00;;;;;;;21.44;33.48;101216.16;4505193;28;20026;-63
2023/10/16 08:13:18;;;;;;;2.10;0.90;;;;;;;21.38;33.39;101209.84;4505498;28;20034;-63
2023/10/16 08:15:28;;;;;;;2.30;1.00;;;;;;;21.43;33.87;101221.09;4486188;28;20034;-63
2023/10/16 08:17:39;;;;;;;2.05;1.05;;;;;;;21.46;33.80;101219.53;4505792;28;20042;-63
2023/10/16 08:19:50;;;;;;;1.38;0.90;;;;;;;21.44;33.75;101222.75;4505084;28;20050;-63
2023/10/16 08:22:27;;;;;;;1.85;1.13;;;;;;;21.45;33.87;101227.34;4504301;28;20503;-63
2023/10/16 08:24:43;;;;;;;1.40;0.80;;;;;;;21.44;33.83;101228.50;4486573;28;20070;-63
2023/10/16 08:27:01;;;;;;;1.90;0.90;;;;;;;21.41;33.97;101219.75;4503353;28;20034;-63
2023/10/16 08:29:12;;;;;;;1.85;1.10;;;;;;;21.46;33.83;101225.28;4504600;28;20121;-63
2023/10/16 08:31:23;;;;;;;1.45;0.90;;;;;;;21.46;34.02;101229.00;4505878;28;20038;-64
2023/10/16 08:33:33;;;;;;;1.77;1.10;;;;;;;21.46;34.24;101223.25;4508102;28;20025;-63
2023/10/16 08:35:45;;;;;;;1.83;0.93;;;;;;;21.47;33.78;101224.91;4506536;28;20083;-64
2023/10/16 08:37:58;;;;;;;1.75;1.00;;;;;;;21.46;33.86;101223.25;4508322;28;20045;-63
2023/10/16 08:40:20;;;;;;;2.60;1.10;;;;;;;21.43;34.12;101221.09;4490800;28;20834;-63
2023/10/16 08:42:30;;;;;;;1.20;0.98;;;;;;;21.42;34.25;101212.84;4490184;28;20960;-63
2023/10/16 08:44:41;;;;;;;1.48;1.05;;;;;;;21.45;34.07;101215.00;4507904;28;20060;-63
2023/10/16 08:47:33;;;;;;;1.60;1.08;;;;;;;21.44;33.69;101214.16;4506522;28;20052;-63
2023/10/16 08:49:25;;;;;;;1.48;1.00;;;;;;;21.39;34.27;101205.75;4501151;28;21602;-63
2023/10/16 08:51:36;;;;;;;1.48;0.90;;;;;;;21.45;34.09;101218.72;4507457;28;20084;-63
2023/10/16 08:53:46;;;;;;;1.58;1.00;;;;;;;21.42;34.29;101212.84;4482391;28;20089;-63
2023/10/16 08:56:09;;;;;;;1.30;1.00;;;;;;;21.45;34.00;101226.47;4507705;28;20029;-63
2023/10/16 08:58:22;;;;;;;1.60;1.08;;;;;;;21.42;33.89;101225.16;4508440;28;20120;-63
2023/10/16 09:00:33;;;;;;;2.50;1.15;;;;;;;21.43;33.95;101218.22;4505451;28;20556;-63
2023/10/16 09:02:44;;;;;;;1.50;1.00;;;;;;;21.44;34.53;101233.41;4507612;28;20128;-63
2023/10/16 09:04:55;;;;;;;1.70;1.08;;;;;;;21.38;35.07;101212.72;4506500;28;20046;-63
2023/10/16 09:07:05;;;;;;;1.45;0.88;;;;;;;21.43;34.49;101228.88;4508080;28;20026;-63
2023/10/16 09:09:20;;;;;;;1.20;0.90;;;;;;;21.44;34.56;101222.75;4506709;28;20518;-63
2023/10/16 09:11:30;;;;;;;1.65;1.02;;;;;;;21.44;34.96;101227.66;4507486;28;20030;-63
2023/10/16 09:13:45;;;;;;;1.95;1.40;;;;;;;21.40;34.58;101218.94;4489269;28;20123;-63
2023/10/16 09:15:57;;;;;;;2.33;1.50;;;;;;;21.40;34.44;101221.81;4506571;28;20066;-63
2023/10/16 09:18:09;;;;;;;1.98;1.35;;;;;;;21.39;34.29;101222.19;4506363;28;20038;-63
2023/10/16 09:20:22;;;;;;;1.63;1.10;;;;;;;21.38;34.37;101214.75;4507002;28;20030;-63
2023/10/16 09:22:33;;;;;;;2.17;1.10;;;;;;;21.41;34.86;101216.88;4507175;28;20038;-63
2023/10/16 09:24:46;;;;;;;1.40;0.98;;;;;;;21.38;35.06;101209.84;4489273;28;20043;-63
2023/10/16 09:26:57;;;;;;;1.13;0.80;;;;;;;21.38;35.09;101209.00;4507000;28;20140;-63
2023/10/16 09:29:14;;;;;;;2.00;0.93;;;;;;;21.40;34.94;101218.94;4489633;28;20161;-63
2023/10/16 09:31:25;;;;;;;1.77;0.90;;;;;;;21.39;34.95;101208.63;4507658;28;20181;-63
2023/10/16 09:33:39;;;;;;;1.17;0.90;;;;;;;21.39;34.84;101211.50;4490356;28;20026;-63
2023/10/16 09:35:59;;;;;;;1.33;0.77;;;;;;;21.29;35.02;101193.91;4507370;28;20034;-63
2023/10/16 09:38:17;;;;;;;1.33;0.82;;;;;;;21.41;35.51;101200.50;4506515;28;20038;-63
2023/10/16 09:40:37;;;;;;;1.23;0.90;;;;;;;21.40;35.55;101203.75;4507388;28;20045;-63
2023/10/16 09:43:08;;;;;;;1.40;0.90;;;;;;;21.38;35.64;101203.25;4506656;28;20979;-63
2023/10/16 09:45:18;;;;;;;1.15;0.88;;;;;;;21.40;36.33;101209.47;4504938;28;20489;-63
2023/10/16 09:47:35;;;;;;;1.48;0.80;;;;;;;21.39;35.76;101205.75;4506884;28;20065;-63
2023/10/16 09:49:46;;;;;;;1.60;0.90;;;;;;;21.38;35.71;101215.59;4507922;28;20041;-63
2023/10/16 09:52:03;;;;;;;1.50;0.90;;;;;;;21.38;35.33;101209.00;4507761;28;20604;-63
2023/10/16 09:54:14;;;;;;;1.13;0.77;;;;;;;21.37;35.30;101210.19;4506145;28;20033;-63
2023/10/16 09:56:25;;;;;;;2.13;1.00;;;;;;;21.40;35.28;101216.06;4504678;28;20034;-63
2023/10/16 09:58:40;;;;;;;1.00;0.80;;;;;;;21.40;35.63;101223.84;4489596;28;20109;-63
2023/10/16 10:00:51;;;;;;;1.75;1.00;;;;;;;21.40;35.89;101218.09;4506928;28;20040;-63
2023/10/16 10:03:07;;;;;;;2.65;0.90;;;;;;;21.40;36.07;101213.19;4505864;28;20050;-63
2023/10/16 10:05:22;;;;;;;2.17;0.90;;;;;;;21.41;36.48;101216.88;4507057;28;20483;-63
2023/10/16 10:07:37;;;;;;;1.52;0.90;;;;;;;21.35;36.71;101204.81;4505947;28;20034;-62
2023/10/16 10:09:53;;;;;;;1.92;1.00;;;;;;;21.40;36.13;101212.34;4506928;28;20713;-62
2023/10/16 10:12:22;;;;;;;1.52;1.02;;;;;;;21.37;36.18;101202.44;4507563;28;20632;-62
2023/10/16 10:14:39;;;;;;;1.77;1.35;;;;;;;21.39;36.42;101204.94;4506890;28;20037;-62
2023/10/16 10:16:56;;;;;;;2.25;1.73;;;;;;;21.38;36.08;101214.75;4488575;28;20054;-62
2023/10/16 10:19:24;;;;;;;1.98;1.30;;;;;;;21.40;36.24;101213.19;4506574;28;20049;-62
2023/10/16 10:21:44;;;;;;;1.25;0.90;;;;;;;21.32;36.72;101199.78;4474629;28;20031;-62
2023/10/16 10:24:00;;;;;;;1.02;0.93;;;;;;;21.39;36.26;101211.50;4504998;28;20042;-62
2023/10/16 10:26:17;;;;;;;1.70;1.00;;;;;;;21.40;36.70;101207.47;4506382;28;20804;-62
2023/10/16 10:28:36;;;;;;;2.25;0.90;;;;;;;21.38;36.42;101209.84;4506742;28;20030;-62
2023/10/16 10:30:49;;;;;;;1.88;0.90;;;;;;;21.39;36.89;101208.63;4506801;28;20092;-62
2023/10/16 10:32:59;;;;;;;1.30;0.90;;;;;;;21.37;37.03;101208.19;4506411;28;20034;-63
2023/10/16 10:36:03;;;;;;;1.40;0.70;;;;;;;21.39;36.47;101211.50;4506635;28;20034;-62
2023/10/16 10:38:20;;;;;;;1.80;0.90;;;;;;;21.29;36.77;101188.19;4497321;28;20057;-62
2023/10/16 10:40:33;;;;;;;3.00;1.50;;;;;;;21.35;37.11;101199.06;4506772;28;20050;-62
2023/10/16 10:42:45;;;;;;;4.70;1.70;;;;;;;21.39;37.34;101204.94;4506896;28;20026;-63
2023/10/16 10:47:32;;;;;;;2.15;1.20;;;;;;;21.40;37.40;101195.97;4506333;28;21430;-63
2023/10/16 10:49:43;;;;;;;1.67;0.90;;;;;;;21.37;37.12;101196.69;4506440;28;20038;-63
2023/10/16 10:51:54;;;;;;;2.10;1.15;;;;;;;21.40;36.70;101195.97;4504487;28;20034;-63
2023/10/16 10:54:06;;;;;;;0.88;0.77;;;;;;;21.38;36.87;101186.03;4505542;28;20153;-63
2023/10/16 10:56:17;;;;;;;1.63;1.00;;;;;;;21.41;37.00;101185.28;4505278;28;20022;-63
2023/10/16 10:58:37;;;;;;;1.38;1.00;;;;;;;21.41;36.93;101185.28;4506720;28;20038;-63
2023/10/16 11:00:50;;;;;;;1.10;0.85;;;;;;;21.39;36.89;101182.78;4506037;28;20081;-63
2023/10/16 11:05:23;;;;;;;1.77;0.90;;;;;;;21.39;37.00;101184.84;4505726;28;20030;-62
2023/10/16 11:07:45;;;;;;;1.15;0.90;;;;;;;21.31;36.99;101175.13;4506740;28;20026;-62
2023/10/16 11:09:57;;;;;;;1.00;0.75;;;;;;;21.33;37.35;101184.22;4505488;28;20062;-62
2023/10/16 11:12:08;;;;;;;1.55;0.90;;;;;;;21.37;37.33;101179.47;4506670;28;20038;-62
2023/10/16 11:14:34;;;;;;;1.55;1.10;;;;;;;21.35;37.03;101178.97;4487082;28;20039;-63
2023/10/16 11:16:45;;;;;;;1.40;1.00;;;;;;;21.39;37.53;101181.97;4504453;28;20038;-63
2023/10/16 11:19:04;;;;;;;1.20;0.75;;;;;;;21.35;37.37;101176.09;4505935;28;20041;-63
2023/10/16 11:21:15;;;;;;;1.05;0.80;;;;;;;21.40;37.26;101183.63;4505483;28;20080;-63
2023/10/16 11:23:31;;;;;;;1.15;0.82;;;;;;;21.40;37.39;101175.88;4506232;28;20081;-62
2023/10/16 11:25:46;;;;;;;2.25;1.00;;;;;;;21.39;37.45;101174.16;4505721;28;20526;-62
2023/10/16 11:28:07;;;;;;;1.38;0.93;;;;;;;21.39;37.27;101164.75;4505070;28;20033;-62
2023/10/16 11:30:18;;;;;;;1.73;0.80;;;;;;;21.36;37.50;101160.53;4505410;28;20108;-62
2023/10/16 11:32:29;;;;;;;0.75;0.70;;;;;;;21.43;37.53;101159.94;4505992;28;20046;-64
2023/10/16 11:34:46;;;;;;;0.80;0.60;;;;;;;21.43;37.68;101163.66;4506041;28;20185;-62
2023/10/16 11:36:57;;;;;;;1.35;0.90;;;;;;;21.40;37.69;101152.91;4505525;28;20029;-63
2023/10/16 11:39:07;;;;;;;1.20;0.88;;;;;;;21.43;39.27;101155.03;4505236;28;20505;-63
2023/10/16 11:41:19;;;;;;;1.38;0.90;;;;;;;21.43;38.44;101155.03;4488226;28;20563;-63
2023/10/16 11:43:31;;;;;;;1.20;0.90;;;;;;;21.41;37.76;101156.59;4505863;28;20786;-63
2023/10/16 11:45:49;;;;;;;1.23;0.90;;;;;;;21.39;37.77;101150.38;4504898;28;20952;-63
2023/10/16 11:50:38;;;;;;;1.00;0.80;;;;;;;21.41;37.63;101147.97;4502803;28;20626;-64
2023/10/16 11:52:50;;;;;;;2.08;1.10;;;;;;;21.47;38.23;101155.97;4505415;28;20038;-63
2023/10/16 11:55:07;;;;;;;1.20;0.82;;;;;;;21.46;37.69;101154.31;4505000;28;20034;-63